Time;durP1;ratioP1;P1;durP2;ratioP2;P2;SDS_P1;SDS_P2;PMS_P1;PMS_P2;Temp;Humidity;BMP_temperature;BMP_pressure;BME280_temperature;BME280_humidity;BME280_pressure;Samples;Min_cycle;Max_cycle;Signal;HPM_P1;HPM_P2
2023/09/03 00:00:28;;;;;;;21.08;13.10;;;;;;;14.95;100.00;102470.22;5081484;28;20540;-73
2023/09/03 00:02:54;;;;;;;19.83;13.35;;;;;;;14.93;100.00;102472.25;5089367;28;20117;-72
2023/09/03 00:05:20;;;;;;;21.48;11.50;;;;;;;14.90;100.00;102469.94;5087821;28;20032;-72
2023/09/03 00:07:45;;;;;;;20.30;13.95;;;;;;;14.86;100.00;102465.97;5073299;28;20029;-72
2023/09/03 00:10:11;;;;;;;21.35;12.93;;;;;;;14.84;100.00;102466.16;5069899;28;20025;-72
2023/09/03 00:12:36;;;;;;;19.48;11.15;;;;;;;14.81;100.00;102461.16;5079067;28;20105;-73
2023/09/03 00:15:02;;;;;;;19.70;12.73;;;;;;;14.77;100.00;102473.28;5089159;28;20064;-73
2023/09/03 00:17:28;;;;;;;19.27;11.73;;;;;;;14.74;100.00;102468.28;5089255;28;20036;-72
2023/09/03 00:19:53;;;;;;;18.27;11.40;;;;;;;14.69;100.00;102468.00;5084282;28;20066;-73
2023/09/03 00:22:18;;;;;;;20.33;12.95;;;;;;;14.69;100.00;102457.25;5069740;28;20675;-72
2023/09/03 00:24:44;;;;;;;18.50;11.25;;;;;;;14.65;100.00;102461.34;5076259;28;20055;-73
2023/09/03 00:27:09;;;;;;;18.83;11.35;;;;;;;14.59;100.00;102465.59;5088764;28;20056;-72
2023/09/03 00:29:35;;;;;;;17.63;11.10;;;;;;;14.60;100.00;102469.09;5083642;28;20040;-72
2023/09/03 00:32:01;;;;;;;20.20;12.65;;;;;;;14.55;100.00;102474.19;5069708;28;20038;-72
2023/09/03 00:34:26;;;;;;;19.52;11.02;;;;;;;14.57;100.00;102467.63;5073013;28;20036;-72
2023/09/03 00:36:52;;;;;;;19.95;11.25;;;;;;;14.55;100.00;102466.13;5088923;28;20081;-72
2023/09/03 00:39:18;;;;;;;19.33;11.95;;;;;;;14.57;100.00;102477.53;5089006;28;20032;-72
2023/09/03 00:41:45;;;;;;;18.98;12.23;;;;;;;14.55;100.00;102479.56;5078719;28;20063;-72
2023/09/03 00:44:10;;;;;;;18.92;11.27;;;;;;;14.47;100.00;102465.16;5069701;28;20032;-72
2023/09/03 00:46:36;;;;;;;19.00;12.50;;;;;;;14.49;100.00;102475.72;5069595;28;20487;-73
2023/09/03 00:49:01;;;;;;;22.58;11.00;;;;;;;14.48;100.00;102477.56;5078845;28;20035;-72
2023/09/03 00:51:27;;;;;;;18.88;10.57;;;;;;;14.41;100.00;102481.19;5088938;28;20056;-72
2023/09/03 00:53:56;;;;;;;19.52;11.60;;;;;;;14.37;100.00;102491.44;5088984;28;20032;-73
2023/09/03 00:56:21;;;;;;;19.75;12.32;;;;;;;14.41;100.00;102491.91;5088909;28;20697;-73
2023/09/03 00:58:47;;;;;;;19.95;11.82;;;;;;;14.36;100.00;102492.44;5088708;28;20119;-73
2023/09/03 01:01:14;;;;;;;22.02;12.00;;;;;;;14.36;100.00;102499.69;5088701;28;20027;-72
2023/09/03 01:03:42;;;;;;;18.95;11.50;;;;;;;14.30;100.00;102495.00;5072872;28;21008;-73
2023/09/03 01:06:08;;;;;;;16.63;10.05;;;;;;;14.29;100.00;102507.59;5082586;28;20044;-73
2023/09/03 01:08:35;;;;;;;18.02;11.52;;;;;;;14.28;100.00;102507.78;5088317;28;20020;-73
2023/09/03 01:11:00;;;;;;;21.98;11.05;;;;;;;14.25;100.00;102506.28;5088527;28;20371;-73
2023/09/03 01:13:31;;;;;;;19.00;12.20;;;;;;;14.25;100.00;102493.72;5088523;28;20027;-73
2023/09/03 01:16:02;;;;;;;19.25;10.10;;;;;;;14.16;100.00;102488.59;5079237;28;20310;-73
2023/09/03 01:18:30;;;;;;;18.43;10.83;;;;;;;14.15;100.00;102481.56;5076430;28;20032;-72
2023/09/03 01:20:55;;;;;;;19.35;10.73;;;;;;;14.17;100.00;102476.84;5086163;28;20020;-72
2023/09/03 01:23:40;;;;;;;15.27;9.55;;;;;;;14.12;100.00;102481.91;5069282;28;20111;-73
2023/09/03 01:26:11;;;;;;;17.35;10.43;;;;;;;14.12;100.00;102479.22;5088380;28;20387;-73
2023/09/03 01:28:40;;;;;;;;;;;;;;;14.18;100.00;102481.22;5083458;28;20620;-73
2023/09/03 01:31:09;;;;;;;16.38;10.02;;;;;;;14.12;100.00;102492.63;5084790;28;19920;-73
2023/09/03 01:33:40;;;;;;;16.95;9.27;;;;;;;14.00;100.00;102476.97;5069148;28;20050;-73
2023/09/03 01:36:07;;;;;;;16.77;9.57;;;;;;;14.08;100.00;102485.97;5088180;28;20034;-72
2023/09/03 01:38:33;;;;;;;16.25;9.63;;;;;;;14.02;100.00;102493.72;5082201;28;20039;-73
2023/09/03 01:41:01;;;;;;;17.65;9.93;;;;;;;14.03;100.00;102491.88;5069992;28;20111;-72
2023/09/03 01:43:27;;;;;;;15.88;9.35;;;;;;;13.91;100.00;102474.53;5091935;28;20030;-73
2023/09/03 01:46:13;;;;;;;19.25;10.93;;;;;;;13.91;100.00;102483.44;5090890;28;20118;-73
2023/09/03 01:48:50;;;;;;;14.52;8.82;;;;;;;13.84;100.00;102484.31;5092029;28;20115;-73
2023/09/03 01:51:40;;;;;;;16.05;8.98;;;;;;;13.84;100.00;102476.28;5080098;28;20150;-73
2023/09/03 01:54:12;;;;;;;19.17;9.80;;;;;;;13.76;100.00;102485.19;5086027;28;20020;-73
2023/09/03 01:56:42;;;;;;;18.60;10.75;;;;;;;13.71;100.00;102479.53;5091949;28;20036;-73
2023/09/03 01:59:19;;;;;;;20.33;10.57;;;;;;;13.65;100.00;102480.22;5091944;28;20031;-73
2023/09/03 02:01:46;;;;;;;17.73;9.95;;;;;;;13.61;100.00;102503.06;5091625;28;20074;-72
2023/09/03 02:04:12;;;;;;;15.73;9.45;;;;;;;13.54;100.00;102508.28;5086796;28;20024;-73
2023/09/03 02:06:37;;;;;;;17.65;10.38;;;;;;;13.45;100.00;102512.00;5082123;28;20055;-73
2023/09/03 02:09:03;;;;;;;15.20;8.73;;;;;;;13.40;100.00;102506.34;5072287;28;20028;-73
2023/09/03 02:11:28;;;;;;;17.80;10.15;;;;;;;13.42;100.00;102515.88;5071006;28;20070;-73
2023/09/03 02:13:54;;;;;;;17.08;8.23;;;;;;;13.40;100.00;102506.34;5072074;28;20024;-72
2023/09/03 02:16:19;;;;;;;16.13;10.13;;;;;;;13.43;100.00;102512.19;5070971;28;20020;-72
2023/09/03 02:18:44;;;;;;;14.32;8.35;;;;;;;13.43;100.00;102525.56;5077315;28;20039;-73
2023/09/03 02:21:10;;;;;;;16.08;8.80;;;;;;;13.44;100.00;102521.91;5072152;28;20476;-73
2023/09/03 02:23:35;;;;;;;17.98;10.13;;;;;;;13.47;100.00;102518.03;5071907;28;20455;-73
2023/09/03 02:26:01;;;;;;;18.60;10.68;;;;;;;13.49;100.00;102514.19;5091310;28;20032;-73
2023/09/03 02:28:27;;;;;;;18.85;9.40;;;;;;;13.53;100.00;102520.84;5080339;28;20052;-73
2023/09/03 02:30:53;;;;;;;20.48;10.63;;;;;;;13.47;100.00;102512.69;5073395;28;20398;-73
2023/09/03 02:33:18;;;;;;;21.05;11.60;;;;;;;13.49;100.00;102527.59;5080821;28;20056;-73
2023/09/03 02:35:44;;;;;;;18.67;10.40;;;;;;;13.56;100.00;102525.03;5071672;28;20112;-73
2023/09/03 02:38:09;;;;;;;16.70;9.07;;;;;;;13.52;100.00;102513.81;5071665;28;20032;-73
2023/09/03 02:40:35;;;;;;;17.52;10.95;;;;;;;13.48;100.00;102511.66;5071703;28;20020;-73
2023/09/03 02:43:00;;;;;;;17.48;9.77;;;;;;;13.47;100.00;102508.16;5071600;28;20043;-73
2023/09/03 02:45:25;;;;;;;17.15;9.98;;;;;;;13.46;100.00;102503.78;5082432;28;20029;-73
2023/09/03 02:47:51;;;;;;;13.70;7.50;;;;;;;13.41;100.00;102506.16;5076589;28;20036;-73
2023/09/03 02:50:16;;;;;;;14.05;8.43;;;;;;;13.37;100.00;102496.81;5090828;28;20031;-73
2023/09/03 02:52:41;;;;;;;15.90;8.90;;;;;;;13.42;100.00;102504.34;5088933;28;20464;-73
2023/09/03 02:55:07;;;;;;;16.85;10.32;;;;;;;13.44;100.00;102510.31;5074408;28;20024;-73
2023/09/03 02:57:32;;;;;;;18.58;10.45;;;;;;;13.45;100.00;102517.38;5090796;28;20035;-73
2023/09/03 02:59:58;;;;;;;15.82;9.40;;;;;;;13.43;100.00;102512.19;5088329;28;20032;-73
2023/09/03 03:02:23;;;;;;;17.15;10.00;;;;;;;13.41;100.00;102529.44;5088407;28;20112;-73
2023/09/03 03:04:49;;;;;;;15.55;9.82;;;;;;;13.33;100.00;102530.31;5072698;28;20028;-72
2023/09/03 03:07:14;;;;;;;18.50;11.63;;;;;;;13.28;100.00;102525.50;5084081;28;20082;-73
2023/09/03 03:09:39;;;;;;;18.38;10.50;;;;;;;13.26;100.00;102518.59;5070924;28;20029;-73
2023/09/03 03:12:05;;;;;;;18.85;10.27;;;;;;;13.26;100.00;102515.91;5073452;28;20043;-73
2023/09/03 03:14:30;;;;;;;18.88;9.43;;;;;;;13.27;100.00;102509.56;5090333;28;20372;-73
2023/09/03 03:16:56;;;;;;;14.43;8.55;;;;;;;13.26;100.00;102515.91;5089094;28;20386;-73
2023/09/03 03:19:21;;;;;;;19.23;10.35;;;;;;;13.25;100.00;102503.50;5090358;28;20020;-73
2023/09/03 03:21:47;;;;;;;15.32;8.52;;;;;;;13.26;100.00;102505.22;5090250;28;20028;-73
2023/09/03 03:24:13;;;;;;;17.13;9.98;;;;;;;13.24;100.00;102491.13;5090302;28;20111;-73
2023/09/03 03:26:38;;;;;;;18.25;9.50;;;;;;;13.25;100.00;102488.25;5073344;28;20036;-73
2023/09/03 03:29:04;;;;;;;22.13;11.68;;;;;;;13.24;100.00;102480.41;5089878;28;20389;-73
2023/09/03 03:31:31;;;;;;;18.38;10.65;;;;;;;13.25;100.00;102477.56;5086264;28;20067;-73
2023/09/03 03:33:56;;;;;;;19.30;11.35;;;;;;;13.29;100.00;102483.44;5069142;28;20035;-73
2023/09/03 03:36:21;;;;;;;18.63;12.52;;;;;;;13.27;100.00;102493.50;5070727;28;20028;-73
2023/09/03 03:38:47;;;;;;;19.05;11.30;;;;;;;13.20;100.00;102503.19;5089397;28;20032;-73
2023/09/03 03:41:18;;;;;;;17.85;9.80;;;;;;;13.12;100.00;102515.59;5088448;28;20036;-73
2023/09/03 03:43:48;;;;;;;16.95;9.88;;;;;;;13.08;100.00;102527.69;5089889;28;20032;-73
2023/09/03 03:46:15;;;;;;;16.95;9.77;;;;;;;13.04;100.00;102523.66;5089833;28;20040;-73
2023/09/03 03:48:41;;;;;;;17.52;9.55;;;;;;;13.03;100.00;102521.19;5089728;28;20032;-73
2023/09/03 03:51:07;;;;;;;18.90;10.95;;;;;;;13.01;100.00;102518.66;5088005;28;20028;-73
2023/09/03 03:53:32;;;;;;;17.33;9.63;;;;;;;13.03;100.00;102521.19;5070293;28;20454;-72
2023/09/03 03:56:06;;;;;;;21.50;11.25;;;;;;;13.06;100.00;102524.34;5070163;28;20032;-72
2023/09/03 03:58:34;;;;;;;16.58;9.18;;;;;;;13.04;100.00;102536.22;5087825;28;20693;-73
2023/09/03 04:01:00;;;;;;;17.83;10.10;;;;;;;13.03;100.00;102527.38;5083550;28;20044;-73
2023/09/03 04:03:27;;;;;;;17.92;9.52;;;;;;;13.03;100.00;102534.56;5070833;28;20073;-73
2023/09/03 04:06:00;;;;;;;18.27;10.93;;;;;;;12.99;100.00;102542.09;5089441;28;20016;-73
2023/09/03 04:08:32;;;;;;;18.77;10.68;;;;;;;13.00;100.00;102541.09;5089474;28;20121;-73
2023/09/03 04:11:01;;;;;;;17.58;10.38;;;;;;;12.99;100.00;102543.94;5089205;28;20028;-73
2023/09/03 04:13:27;;;;;;;16.85;9.95;;;;;;;12.87;100.00;102530.09;5089301;28;20530;-73
2023/09/03 04:15:54;;;;;;;19.40;9.50;;;;;;;12.90;100.00;102549.31;5089111;28;20119;-72
2023/09/03 04:18:20;;;;;;;17.15;9.10;;;;;;;12.81;100.00;102536.97;5083542;28;20170;-73
2023/09/03 04:20:45;;;;;;;18.63;10.70;;;;;;;12.80;100.00;102537.13;5089052;28;20028;-73
2023/09/03 04:23:10;;;;;;;15.93;8.65;;;;;;;12.84;100.00;102541.16;5088892;28;20032;-73
2023/09/03 04:25:37;;;;;;;15.95;9.52;;;;;;;12.87;100.00;102544.31;5069811;28;20598;-73
2023/09/03 04:28:02;;;;;;;18.58;10.15;;;;;;;12.88;100.00;102554.00;5074992;28;20513;-73
2023/09/03 04:30:27;;;;;;;16.35;9.43;;;;;;;12.79;100.00;102538.16;5069700;28;20048;-73
2023/09/03 04:32:53;;;;;;;16.65;9.32;;;;;;;12.80;100.00;102550.50;5088048;28;20070;-73
2023/09/03 04:35:18;;;;;;;17.38;10.45;;;;;;;12.79;100.00;102551.53;5089009;28;20489;-73
2023/09/03 04:37:44;;;;;;;20.08;9.55;;;;;;;12.78;100.00;102542.63;5088974;28;20036;-73
2023/09/03 04:40:10;;;;;;;18.67;9.63;;;;;;;12.83;100.00;102550.16;5088968;28;20029;-73
2023/09/03 04:42:35;;;;;;;17.80;9.45;;;;;;;12.82;100.00;102543.97;5075573;28;20036;-73
2023/09/03 04:45:01;;;;;;;17.45;9.23;;;;;;;12.82;100.00;102540.47;5073064;28;20059;-72
2023/09/03 04:47:27;;;;;;;18.65;11.43;;;;;;;12.78;100.00;102537.28;5075804;28;20036;-72
2023/09/03 04:49:52;;;;;;;21.33;10.55;;;;;;;12.86;100.00;102557.84;5088737;28;21198;-73
2023/09/03 04:52:17;;;;;;;17.73;9.82;;;;;;;12.87;100.00;102568.41;5082622;28;20046;-73
2023/09/03 04:54:43;;;;;;;21.15;12.52;;;;;;;12.86;100.00;102579.28;5069331;28;20067;-73
2023/09/03 04:57:09;;;;;;;17.05;10.57;;;;;;;12.82;100.00;102576.13;5069831;28;20036;-72
2023/09/03 04:59:34;;;;;;;18.58;10.73;;;;;;;12.91;100.00;102588.47;5088098;28;20026;-73
2023/09/03 05:01:59;;;;;;;15.85;8.70;;;;;;;12.91;100.00;102574.25;5086223;28;20394;-73
2023/09/03 05:04:25;;;;;;;19.70;10.35;;;;;;;12.97;100.00;102588.81;5088026;28;20032;-73
2023/09/03 05:06:50;;;;;;;15.73;9.68;;;;;;;12.96;100.00;102590.66;5088505;28;20028;-73
2023/09/03 05:09:15;;;;;;;18.38;10.05;;;;;;;13.00;100.00;102596.53;5071472;28;20526;-73
2023/09/03 05:11:42;;;;;;;18.63;11.32;;;;;;;13.00;100.00;102601.88;5069197;28;20523;-73
2023/09/03 05:14:08;;;;;;;19.52;11.38;;;;;;;12.94;100.00;102590.84;5085777;28;20039;-73
2023/09/03 05:16:33;;;;;;;22.10;11.00;;;;;;;12.96;100.00;102597.84;5091080;28;20141;-73
2023/09/03 05:19:04;;;;;;;19.08;10.45;;;;;;;12.94;100.00;102585.47;5092123;28;20040;-73
2023/09/03 05:21:30;;;;;;;17.73;9.93;;;;;;;12.99;100.00;102593.00;5092328;28;20028;-73
2023/09/03 05:23:55;;;;;;;20.30;10.77;;;;;;;13.01;100.00;102598.19;5092103;28;20875;-73
2023/09/03 05:26:20;;;;;;;18.73;11.15;;;;;;;13.03;100.00;102599.69;5091455;28;20032;-73
2023/09/03 05:28:46;;;;;;;20.55;10.63;;;;;;;13.08;100.00;102599.19;5085367;28;20056;-73
2023/09/03 05:31:12;;;;;;;22.63;12.02;;;;;;;13.12;100.00;102598.66;5083550;28;20052;-73
2023/09/03 05:33:39;;;;;;;20.80;11.85;;;;;;;13.13;100.00;102607.56;5083400;28;20133;-73
2023/09/03 05:36:05;;;;;;;17.80;10.98;;;;;;;13.19;100.00;102608.72;5073344;28;20028;-72
2023/09/03 05:38:30;;;;;;;21.27;12.15;;;;;;;13.22;100.00;102611.03;5072577;28;20399;-73
2023/09/03 05:40:58;;;;;;;18.90;10.98;;;;;;;13.26;100.00;102613.25;5072280;28;20162;-72
2023/09/03 05:43:23;;;;;;;21.50;12.82;;;;;;;13.31;100.00;102607.38;5092183;28;20032;-73
2023/09/03 05:45:49;;;;;;;17.10;9.75;;;;;;;13.32;100.00;102601.84;5091954;28;20031;-72
2023/09/03 05:48:14;;;;;;;18.65;9.40;;;;;;;13.34;100.00;102607.03;5090596;28;20056;-73
2023/09/03 05:50:39;;;;;;;17.58;10.48;;;;;;;13.34;100.00;102607.88;5091764;28;20028;-73
2023/09/03 05:53:05;;;;;;;23.15;13.48;;;;;;;13.35;100.00;102606.00;5091624;28;20034;-72
2023/09/03 05:55:30;;;;;;;21.38;10.68;;;;;;;13.36;100.00;102611.22;5090999;28;20067;-72
2023/09/03 05:57:55;;;;;;;19.45;10.93;;;;;;;13.38;100.00;102619.06;5091516;28;20020;-73
2023/09/03 06:00:21;;;;;;;19.77;10.60;;;;;;;13.37;100.00;102626.28;5091429;28;20497;-73
2023/09/03 06:02:48;;;;;;;19.48;10.95;;;;;;;13.38;100.00;102619.91;5089146;28;20476;-73
2023/09/03 06:05:14;;;;;;;19.35;11.35;;;;;;;13.43;100.00;102634.63;5087486;28;20075;-72
2023/09/03 06:07:39;;;;;;;21.23;12.63;;;;;;;13.47;100.00;102636.81;5090319;28;20064;-72
2023/09/03 06:10:05;;;;;;;20.08;12.23;;;;;;;13.51;100.00;102638.13;5071405;28;20387;-72
2023/09/03 06:12:31;;;;;;;20.40;12.23;;;;;;;13.56;100.00;102645.66;5086577;28;20372;-72
2023/09/03 06:14:56;;;;;;;21.30;10.73;;;;;;;13.58;100.00;102641.78;5088188;28;20058;-73
2023/09/03 06:17:21;;;;;;;22.10;12.80;;;;;;;13.63;100.00;102638.59;5091238;28;20024;-73
2023/09/03 06:19:48;;;;;;;19.85;12.35;;;;;;;13.68;100.00;102646.97;5091294;28;20505;-73
2023/09/03 06:22:14;;;;;;;21.30;12.45;;;;;;;13.72;100.00;102656.31;5081474;28;20037;-73
2023/09/03 06:24:40;;;;;;;19.23;11.63;;;;;;;13.74;100.00;102662.34;5091221;28;20044;-73
2023/09/03 06:27:05;;;;;;;20.00;10.85;;;;;;;13.77;100.00;102661.16;5090539;28;20032;-73
2023/09/03 06:29:30;;;;;;;20.02;12.82;;;;;;;13.92;100.00;102672.03;5071811;28;20078;-73
2023/09/03 06:31:56;;;;;;;20.45;12.70;;;;;;;13.98;100.00;102669.47;5071604;28;20122;-73
2023/09/03 06:34:22;;;;;;;20.90;11.98;;;;;;;14.02;100.00;102673.47;5071649;28;20112;-73
2023/09/03 06:36:48;;;;;;;21.35;11.15;;;;;;;13.98;100.00;102668.63;5071602;28;20119;-73
2023/09/03 06:39:13;;;;;;;22.83;14.40;;;;;;;14.07;100.00;102689.06;5070191;28;20435;-73
2023/09/03 06:41:39;;;;;;;21.20;13.27;;;;;;;14.11;100.00;102694.91;5072697;28;20050;-73
2023/09/03 06:44:04;;;;;;;24.65;13.68;;;;;;;14.13;100.00;102703.63;5071544;28;20029;-73
2023/09/03 06:46:30;;;;;;;22.90;13.68;;;;;;;14.15;100.00;102712.34;5071562;28;21141;-72
2023/09/03 06:48:55;;;;;;;21.83;13.98;;;;;;;14.16;100.00;102706.78;5071502;28;20036;-73
2023/09/03 06:51:20;;;;;;;25.83;14.23;;;;;;;14.20;100.00;102704.56;5085456;28;20408;-72
2023/09/03 06:53:46;;;;;;;20.63;12.38;;;;;;;14.19;100.00;102698.38;5086710;28;20071;-73
2023/09/03 06:56:11;;;;;;;25.83;14.15;;;;;;;14.32;100.00;102713.91;5090550;28;20027;-73
2023/09/03 06:58:38;;;;;;;26.67;16.58;;;;;;;14.35;100.00;102710.03;5090506;28;20168;-73
2023/09/03 07:01:04;;;;;;;26.35;14.45;;;;;;;14.40;100.00;102711.19;5071620;28;20029;-73
2023/09/03 07:03:29;;;;;;;24.10;12.82;;;;;;;14.43;100.00;102716.19;5069938;28;20025;-73
2023/09/03 07:05:55;;;;;;;21.40;12.70;;;;;;;14.51;100.00;102722.53;5071003;28;20025;-73
2023/09/03 07:08:20;;;;;;;24.08;14.40;;;;;;;14.58;100.00;102719.00;5069674;28;20028;-72
2023/09/03 07:10:45;;;;;;;24.75;14.43;;;;;;;14.61;100.00;102717.81;5070777;28;20035;-73
2023/09/03 07:13:11;;;;;;;23.00;13.05;;;;;;;14.72;100.00;102721.94;5070728;28;20020;-72
2023/09/03 07:15:36;;;;;;;27.13;15.93;;;;;;;14.80;100.00;102717.38;5070696;28;20032;-73
2023/09/03 07:18:03;;;;;;;23.80;14.70;;;;;;;14.87;100.00;102726.34;5070881;28;20489;-73
2023/09/03 07:20:28;;;;;;;21.33;13.32;;;;;;;14.92;100.00;102717.78;5070526;28;20123;-73
2023/09/03 07:22:54;;;;;;;23.42;14.13;;;;;;;14.97;100.00;102714.56;5070560;28;20101;-74
2023/09/03 07:25:19;;;;;;;24.08;15.05;;;;;;;15.07;100.00;102720.53;5085638;28;20205;-72
2023/09/03 07:27:45;;;;;;;22.33;14.43;;;;;;;15.12;100.00;102710.91;5084323;28;20393;-75
2023/09/03 07:30:11;;;;;;;25.70;15.25;;;;;;;15.19;100.00;102719.06;5057199;28;20025;-73
2023/09/03 07:32:37;;;;;;;26.35;17.13;;;;;;;15.28;100.00;102722.53;5069094;28;20456;-73
2023/09/03 07:35:06;;;;;;;26.83;17.17;;;;;;;15.37;100.00;102718.72;5071270;28;20170;-73
2023/09/03 07:37:32;;;;;;;26.65;17.02;;;;;;;15.50;100.00;102728.84;5089552;28;20028;-73
2023/09/03 07:39:57;;;;;;;27.83;18.23;;;;;;;15.59;100.00;102729.59;5087117;28;20387;-73
2023/09/03 07:42:23;;;;;;;28.40;18.33;;;;;;;15.71;100.00;102736.25;5069103;28;20033;-73
2023/09/03 07:44:48;;;;;;;28.35;18.48;;;;;;;15.77;100.00;102739.03;5083184;28;20038;-73
2023/09/03 07:47:14;;;;;;;27.50;16.52;;;;;;;15.88;100.00;102748.50;5087871;28;20124;-73
2023/09/03 07:49:39;;;;;;;28.35;18.42;;;;;;;15.98;100.00;102748.22;5080888;28;20032;-73
2023/09/03 07:52:07;;;;;;;26.30;18.55;;;;;;;16.02;100.00;102744.13;5089416;28;20489;-73
2023/09/03 07:54:32;;;;;;;30.45;18.05;;;;;;;16.14;100.00;102741.81;5089472;28;20063;-73
2023/09/03 07:56:57;;;;;;;27.27;17.05;;;;;;;16.27;100.00;102746.50;5086189;28;20063;-73
2023/09/03 07:59:23;;;;;;;25.38;17.13;;;;;;;16.45;100.00;102755.03;5071074;28;20036;-73
2023/09/03 08:01:48;;;;;;;26.52;18.90;;;;;;;16.54;100.00;102734.22;5077381;28;20040;-73
2023/09/03 08:04:13;;;;;;;27.58;19.65;;;;;;;16.78;100.00;102744.66;5082217;28;20043;-78
2023/09/03 08:06:39;;;;;;;26.73;18.73;;;;;;;16.90;100.00;102745.00;5075156;28;20041;-73
2023/09/03 08:09:05;;;;;;;26.77;16.92;;;;;;;17.01;100.00;102749.88;5073790;28;20495;-73
2023/09/03 08:11:31;;;;;;;26.83;19.13;;;;;;;17.11;100.00;102752.25;5088671;28;20028;-73
2023/09/03 08:13:59;;;;;;;27.00;18.27;;;;;;;17.36;100.00;102746.44;5088781;28;20209;-73
2023/09/03 08:16:25;;;;;;;25.58;19.88;;;;;;;17.58;100.00;102737.28;5082080;28;20361;-74
2023/09/03 08:18:51;;;;;;;24.98;17.20;;;;;;;17.92;100.00;102741.88;5069441;28;20043;-74
2023/09/03 08:21:16;;;;;;;26.85;19.17;;;;;;;18.33;100.00;102741.00;5068396;28;20047;-73
2023/09/03 08:23:41;;;;;;;25.15;18.27;;;;;;;18.49;100.00;102742.50;5073122;28;20510;-74
2023/09/03 08:26:07;;;;;;;25.88;17.35;;;;;;;18.55;100.00;102752.53;5076818;28;20042;-73
2023/09/03 08:28:33;;;;;;;23.50;16.08;;;;;;;18.64;100.00;102745.06;5087086;28;20044;-73
2023/09/03 08:30:58;;;;;;;23.50;15.95;;;;;;;19.00;100.00;102752.03;5073081;28;20125;-73
2023/09/03 08:33:24;;;;;;;25.67;16.73;;;;;;;19.42;100.00;102753.50;5072658;28;20025;-74
2023/09/03 08:35:49;;;;;;;24.77;16.77;;;;;;;19.93;100.00;102751.97;5078957;28;20162;-79
2023/09/03 08:38:15;;;;;;;23.27;14.52;;;;;;;20.11;100.00;102759.41;5087283;28;20059;-75
2023/09/03 08:40:41;;;;;;;25.60;16.63;;;;;;;19.79;100.00;102767.44;5077559;28;20029;-74
2023/09/03 08:43:08;;;;;;;25.05;15.32;;;;;;;19.53;100.00;102762.84;5081415;28;20029;-75
2023/09/03 08:45:40;;;;;;;25.70;16.00;;;;;;;19.40;100.00;102774.50;5077205;28;20024;-75
2023/09/03 08:48:06;;;;;;;26.10;18.52;;;;;;;19.24;100.00;102770.34;5074897;28;20024;-75
2023/09/03 08:50:33;;;;;;;23.40;16.92;;;;;;;19.15;100.00;102774.31;5079499;28;20032;-75
2023/09/03 08:53:00;;;;;;;23.98;16.88;;;;;;;19.11;100.00;102770.34;5073536;28;20024;-75
2023/09/03 08:55:29;;;;;;;26.67;18.90;;;;;;;19.12;100.00;102768.47;5075075;28;20368;-75
2023/09/03 08:57:54;;;;;;;27.75;18.05;;;;;;;19.13;100.00;102762.84;5086899;28;20032;-75
2023/09/03 09:00:20;;;;;;;24.67;18.50;;;;;;;19.23;100.00;102771.41;5071800;28;20023;-75
2023/09/03 09:02:48;;;;;;;28.83;20.75;;;;;;;19.19;100.00;102769.31;5073578;28;20082;-75
2023/09/03 09:05:15;;;;;;;25.75;18.05;;;;;;;19.18;100.00;102763.06;5077156;28;20024;-72
2023/09/03 09:07:40;;;;;;;27.55;19.85;;;;;;;19.24;100.00;102764.13;5070162;28;20036;-72
2023/09/03 09:10:09;;;;;;;22.55;15.88;;;;;;;19.28;100.00;102762.63;5071750;28;20040;-69
2023/09/03 09:12:45;;;;;;;23.13;15.18;;;;;;;19.33;100.00;102754.72;5071311;28;20037;-72
2023/09/03 09:15:10;;;;;;;23.10;13.88;;;;;;;19.38;100.00;102757.66;5085344;28;20021;-79
2023/09/03 09:17:39;;;;;;;20.48;12.93;;;;;;;19.49;100.00;102754.34;5080783;28;20033;-74
2023/09/03 09:20:06;;;;;;;18.50;11.73;;;;;;;19.57;100.00;102769.53;5069835;28;20059;-75
2023/09/03 09:22:41;;;;;;;21.02;14.40;;;;;;;19.57;100.00;102769.53;5070036;28;20028;-74
2023/09/03 09:25:08;;;;;;;18.90;11.13;;;;;;;19.62;100.00;102774.28;5072242;28;20107;-74
2023/09/03 09:27:38;;;;;;;17.15;10.80;;;;;;;19.62;100.00;102774.28;5080410;28;20027;-74
2023/09/03 09:30:14;;;;;;;17.52;10.02;;;;;;;19.64;100.00;102769.50;5087690;28;20490;-74
2023/09/03 09:32:41;;;;;;;21.20;11.18;;;;;;;19.70;100.00;102765.97;5069189;28;20043;-73
2023/09/03 09:35:07;;;;;;;18.50;11.55;;;;;;;19.82;100.00;102761.59;5084334;28;20107;-74
2023/09/03 09:37:39;;;;;;;20.02;12.18;;;;;;;20.02;100.00;102763.44;5089049;28;20721;-73
2023/09/03 09:40:05;;;;;;;18.45;11.05;;;;;;;20.11;100.00;102762.97;5078038;28;20035;-74
2023/09/03 09:42:31;;;;;;;20.67;12.50;;;;;;;20.19;100.00;102755.66;5069152;28;20111;-74
2023/09/03 09:44:59;;;;;;;16.80;10.23;;;;;;;20.17;100.00;102761.25;5066931;28;20047;-74
2023/09/03 09:47:25;;;;;;;20.15;12.02;;;;;;;20.19;100.00;102751.06;5074591;28;20028;-74
2023/09/03 09:49:51;;;;;;;18.52;11.20;;;;;;;20.18;100.00;102762.94;5072657;28;20024;-73
2023/09/03 09:52:18;;;;;;;17.80;11.20;;;;;;;20.10;99.07;102755.06;5084966;28;20153;-73
2023/09/03 09:54:44;;;;;;;21.60;12.95;;;;;;;20.16;100.00;102753.38;5072510;28;20037;-73
2023/09/03 09:57:10;;;;;;;16.85;10.65;;;;;;;20.22;100.00;102766.88;5080806;28;20055;-75
2023/09/03 09:59:35;;;;;;;18.13;10.68;;;;;;;20.19;99.05;102753.75;5088761;28;20071;-73
2023/09/03 10:02:11;;;;;;;17.52;9.70;;;;;;;20.28;100.00;102755.19;5074968;28;20097;-73
2023/09/03 10:04:41;;;;;;;19.50;10.07;;;;;;;20.19;100.00;102755.66;5087379;28;20024;-73
2023/09/03 10:07:07;;;;;;;17.02;9.95;;;;;;;20.18;98.81;102754.00;5075745;28;20110;-74
2023/09/03 10:09:35;;;;;;;18.02;9.27;;;;;;;20.25;99.59;102762.91;5076537;28;20126;-74
2023/09/03 10:12:00;;;;;;;15.98;9.50;;;;;;;20.31;99.23;102762.06;5080041;28;20036;-73
2023/09/03 10:14:26;;;;;;;15.30;9.65;;;;;;;20.35;98.39;102764.09;5079849;28;20023;-73
2023/09/03 10:16:53;;;;;;;15.25;9.27;;;;;;;20.38;100.00;102765.56;5081181;28;20058;-73
2023/09/03 10:19:21;;;;;;;18.10;11.05;;;;;;;20.39;100.00;102761.00;5088192;28;20035;-73
2023/09/03 10:21:49;;;;;;;18.45;10.00;;;;;;;20.45;99.74;102765.53;5087915;28;20028;-73
2023/09/03 10:24:17;;;;;;;15.85;10.23;;;;;;;20.40;97.11;102758.03;5088292;28;20034;-73
2023/09/03 10:26:53;;;;;;;17.35;9.77;;;;;;;20.45;95.55;102766.38;5087883;28;20036;-73
2023/09/03 10:29:20;;;;;;;18.27;10.20;;;;;;;20.45;95.71;102760.13;5087430;28;20051;-73
2023/09/03 10:31:48;;;;;;;16.73;10.40;;;;;;;20.38;96.05;102743.88;5087395;28;20047;-73
2023/09/03 10:34:17;;;;;;;19.27;10.27;;;;;;;20.60;96.17;102754.47;5075489;28;20170;-73
2023/09/03 10:37:05;;;;;;;16.13;10.55;;;;;;;20.72;99.69;102756.25;5068248;28;20028;-73
2023/09/03 10:39:31;;;;;;;16.15;9.95;;;;;;;20.69;97.22;102759.38;5085972;28;20032;-73
2023/09/03 10:42:14;;;;;;;14.35;9.15;;;;;;;20.84;97.44;102756.38;5077419;28;20483;-73
2023/09/03 10:44:48;;;;;;;19.10;10.93;;;;;;;20.93;94.90;102767.78;5078698;28;20047;-73
2023/09/03 10:47:17;;;;;;;17.83;10.32;;;;;;;20.95;96.91;102763.81;5067998;28;20032;-73
2023/09/03 10:49:44;;;;;;;19.67;11.60;;;;;;;20.90;95.83;102763.63;5073814;28;20042;-78
2023/09/03 10:52:31;;;;;;;17.40;11.02;;;;;;;20.97;95.50;102769.84;5079069;28;20020;-75
2023/09/03 10:55:09;;;;;;;16.83;10.02;;;;;;;21.09;99.06;102770.00;5074233;28;20035;-75
2023/09/03 10:57:34;;;;;;;15.15;9.57;;;;;;;21.00;92.15;102763.97;5076180;28;20067;-76
2023/09/03 11:00:05;;;;;;;15.98;9.57;;;;;;;21.04;91.96;102772.53;5084656;28;20468;-76
2023/09/03 11:02:32;;;;;;;19.55;10.32;;;;;;;21.01;92.48;102765.66;5083076;28;20140;-76